Time;durP1;ratioP1;P1;durP2;ratioP2;P2;SDS_P1;SDS_P2;PMS_P1;PMS_P2;Temp;Humidity;BMP_temperature;BMP_pressure;BME280_temperature;BME280_humidity;BME280_pressure;Samples;Min_cycle;Max_cycle;Signal;HPM_P1;HPM_P2
2021/03/24 00:01:13;;;;;;;61.50;32.90;;;;;;;;;;5026794;28;20551;-52
2021/03/24 00:03:39;;;;;;;53.35;33.97;;;;;;;;;;5026395;28;20418;-52
2021/03/24 00:06:06;;;;;;;49.00;30.20;;;;;;;;;;5026841;28;20632;-52
2021/03/24 00:08:32;;;;;;;50.67;30.88;;;;;;;;;;5026115;28;20396;-53
2021/03/24 00:10:58;;;;;;;51.78;30.80;;;;;;;;;;5026662;28;20226;-53
2021/03/24 00:13:24;;;;;;;48.53;30.95;;;;;;;;;;5025746;28;20286;-53
2021/03/24 00:15:50;;;;;;;50.73;30.90;;;;;;;;;;5025348;28;20246;-54
2021/03/24 00:18:17;;;;;;;64.37;30.37;;;;;;;;;;5025767;28;20398;-54
2021/03/24 00:20:43;;;;;;;57.72;32.97;;;;;;;;;;5026529;28;20501;-52
2021/03/24 00:23:09;;;;;;;51.00;29.60;;;;;;;;;;5026737;28;20173;-52
2021/03/24 00:25:35;;;;;;;63.33;33.85;;;;;;;;;;5026592;28;20256;-51
2021/03/24 00:28:02;;;;;;;57.03;31.60;;;;;;;;;;5026018;28;20261;-53
2021/03/24 00:30:31;;;;;;;54.17;30.95;;;;;;;;;;5026043;28;20443;-51
2021/03/24 00:32:57;;;;;;;54.55;31.05;;;;;;;;;;5025853;28;20182;-54
2021/03/24 00:35:23;;;;;;;52.30;30.77;;;;;;;;;;5025073;28;20275;-52
2021/03/24 00:37:49;;;;;;;52.70;31.97;;;;;;;;;;5026233;28;20214;-54
2021/03/24 00:40:21;;;;;;;50.22;30.02;;;;;;;;;;5026506;28;20507;-52
2021/03/24 00:42:47;;;;;;;55.88;31.10;;;;;;;;;;5026240;28;20188;-52
2021/03/24 00:45:13;;;;;;;53.37;30.63;;;;;;;;;;5025085;28;20191;-52
2021/03/24 00:47:39;;;;;;;56.78;32.83;;;;;;;;;;5025734;28;20417;-52
2021/03/24 00:50:06;;;;;;;54.35;30.52;;;;;;;;;;5024959;28;20173;-52
2021/03/24 00:52:32;;;;;;;54.90;31.00;;;;;;;;;;5024136;28;20196;-52
2021/03/24 00:54:58;;;;;;;57.20;30.37;;;;;;;;;;5025897;28;20450;-52
2021/03/24 00:57:24;;;;;;;57.60;30.80;;;;;;;;;;5025909;28;20914;-53
2021/03/24 00:59:50;;;;;;;57.10;32.50;;;;;;;;;;5025978;28;20453;-53
2021/03/24 01:02:16;;;;;;;53.07;31.00;;;;;;;;;;5025881;28;20425;-52
2021/03/24 01:04:42;;;;;;;55.53;28.90;;;;;;;;;;5021508;28;20403;-51
2021/03/24 01:07:12;;;;;;;52.40;31.08;;;;;;;;;;5022621;28;20416;-52
2021/03/24 01:09:39;;;;;;;52.05;29.50;;;;;;;;;;5021240;28;20191;-52
2021/03/24 01:12:05;;;;;;;54.08;31.15;;;;;;;;;;5022498;28;20264;-52
2021/03/24 01:14:31;;;;;;;50.25;29.58;;;;;;;;;;5020596;28;20200;-52
2021/03/24 01:16:58;;;;;;;55.83;31.20;;;;;;;;;;5022691;28;20176;-51
2021/03/24 01:19:24;;;;;;;63.17;30.60;;;;;;;;;;5022666;28;20183;-52
2021/03/24 01:21:50;;;;;;;52.67;29.40;;;;;;;;;;5021018;28;20704;-52
2021/03/24 01:24:15;;;;;;;56.53;31.50;;;;;;;;;;5022257;28;20196;-53
2021/03/24 01:26:42;;;;;;;49.10;31.20;;;;;;;;;;5022062;28;20407;-53
2021/03/24 01:29:08;;;;;;;53.40;29.98;;;;;;;;;;5022672;28;20407;-52
2021/03/24 01:31:34;;;;;;;55.83;30.60;;;;;;;;;;5023007;28;20261;-52
2021/03/24 01:34:01;;;;;;;50.33;31.00;;;;;;;;;;5021598;28;20407;-52
2021/03/24 01:36:28;;;;;;;54.63;30.65;;;;;;;;;;5022175;28;20565;-51
2021/03/24 01:38:54;;;;;;;54.65;31.52;;;;;;;;;;5020619;28;20194;-52
2021/03/24 01:41:21;;;;;;;51.65;29.00;;;;;;;;;;5021001;28;20196;-53
2021/03/24 01:43:47;;;;;;;53.75;28.38;;;;;;;;;;5021913;28;20164;-52
2021/03/24 01:46:19;;;;;;;50.17;29.40;;;;;;;;;;5020546;28;20201;-54
2021/03/24 01:48:59;;;;;;;53.88;29.70;;;;;;;;;;5020556;28;20477;-53
2021/03/24 01:51:27;;;;;;;49.63;29.77;;;;;;;;;;5019536;28;20202;-52
2021/03/24 01:53:54;;;;;;;44.03;25.95;;;;;;;;;;5020626;28;20176;-52
2021/03/24 01:56:20;;;;;;;42.90;25.25;;;;;;;;;;5020193;28;20264;-52
2021/03/24 01:58:47;;;;;;;44.13;26.20;;;;;;;;;;5020230;28;20168;-52
2021/03/24 02:01:15;;;;;;;45.95;26.38;;;;;;;;;;5019960;28;20243;-53
2021/03/24 02:03:41;;;;;;;45.72;27.15;;;;;;;;;;5019863;28;20231;-53
2021/03/24 02:06:09;;;;;;;42.88;26.30;;;;;;;;;;5020844;28;20180;-52
2021/03/24 02:08:38;;;;;;;46.75;26.27;;;;;;;;;;5019892;28;20168;-52
2021/03/24 02:11:15;;;;;;;51.60;27.77;;;;;;;;;;5019663;28;20283;-53
2021/03/24 02:14:01;;;;;;;42.88;25.13;;;;;;;;;;5020186;28;20157;-52
2021/03/24 02:16:31;;;;;;;45.10;25.55;;;;;;;;;;5020213;28;20210;-52
2021/03/24 02:18:59;;;;;;;42.28;23.85;;;;;;;;;;5019628;28;20171;-52
2021/03/24 02:21:29;;;;;;;42.97;26.63;;;;;;;;;;5020004;28;20192;-52
2021/03/24 02:24:31;;;;;;;42.13;25.85;;;;;;;;;;5018623;28;20187;-52
2021/03/24 02:27:01;;;;;;;49.95;26.55;;;;;;;;;;4998142;28;20223;-51
2021/03/24 02:29:29;;;;;;;45.03;26.08;;;;;;;;;;5012388;28;20184;-52
2021/03/24 02:31:55;;;;;;;42.17;25.70;;;;;;;;;;5020802;28;20219;-52
2021/03/24 02:34:24;;;;;;;43.60;25.67;;;;;;;;;;5020197;28;20244;-53
2021/03/24 02:36:51;;;;;;;44.95;26.90;;;;;;;;;;5018659;28;20212;-52
2021/03/24 02:39:18;;;;;;;47.63;25.13;;;;;;;;;;5018778;28;20169;-52
2021/03/24 02:41:45;;;;;;;45.70;25.88;;;;;;;;;;5019160;28;20306;-52
2021/03/24 02:44:12;;;;;;;47.45;24.33;;;;;;;;;;5019750;28;20258;-52
2021/03/24 02:46:39;;;;;;;44.53;24.92;;;;;;;;;;5019676;28;20168;-52
2021/03/24 02:49:06;;;;;;;42.72;24.75;;;;;;;;;;5019492;28;20164;-52
2021/03/24 02:51:32;;;;;;;52.45;28.00;;;;;;;;;;5019904;28;20258;-52
2021/03/24 02:53:58;;;;;;;44.53;23.20;;;;;;;;;;5017305;28;20184;-53
2021/03/24 02:56:24;;;;;;;38.15;22.83;;;;;;;;;;5019160;28;20847;-52
2021/03/24 02:58:51;;;;;;;41.50;22.60;;;;;;;;;;5019394;28;20171;-53
2021/03/24 03:01:23;;;;;;;43.95;24.17;;;;;;;;;;5019378;28;20419;-52
2021/03/24 03:03:51;;;;;;;38.72;23.17;;;;;;;;;;5018921;28;20172;-52
2021/03/24 03:06:19;;;;;;;41.28;24.10;;;;;;;;;;5019520;28;20168;-53
2021/03/24 03:08:54;;;;;;;46.33;26.27;;;;;;;;;;5018379;28;20178;-53
2021/03/24 03:11:34;;;;;;;44.15;24.83;;;;;;;;;;5018384;28;20227;-52
2021/03/24 03:14:03;;;;;;;37.00;23.58;;;;;;;;;;5019547;28;20190;-52
2021/03/24 03:16:39;;;;;;;44.58;24.48;;;;;;;;;;5018458;28;20234;-53
2021/03/24 03:19:23;;;;;;;43.53;25.17;;;;;;;;;;5018997;28;20183;-53
2021/03/24 03:21:51;;;;;;;44.20;24.50;;;;;;;;;;5019207;28;20207;-51
2021/03/24 03:24:19;;;;;;;44.47;26.85;;;;;;;;;;5019662;28;20176;-53
2021/03/24 03:26:46;;;;;;;42.90;25.55;;;;;;;;;;5018919;28;20183;-51
2021/03/24 03:29:17;;;;;;;43.30;26.08;;;;;;;;;;5019157;28;20222;-54
2021/03/24 03:31:45;;;;;;;42.50;23.75;;;;;;;;;;5017464;28;20283;-53
2021/03/24 03:34:12;;;;;;;42.75;24.45;;;;;;;;;;5018773;28;20176;-55
2021/03/24 03:36:40;;;;;;;37.60;23.80;;;;;;;;;;5019321;28;20266;-52
2021/03/24 03:39:09;;;;;;;48.67;23.75;;;;;;;;;;5017112;28;20180;-52
2021/03/24 03:41:35;;;;;;;38.42;23.35;;;;;;;;;;5016317;28;20216;-52
2021/03/24 03:44:02;;;;;;;39.88;24.70;;;;;;;;;;5019034;28;20673;-52
2021/03/24 03:46:31;;;;;;;39.50;22.25;;;;;;;;;;5018512;28;20172;-52
2021/03/24 03:48:57;;;;;;;38.55;23.90;;;;;;;;;;5018168;28;20180;-53
2021/03/24 03:51:23;;;;;;;36.58;22.58;;;;;;;;;;5017850;28;20278;-52
2021/03/24 03:54:10;;;;;;;39.10;23.23;;;;;;;;;;5018011;28;20594;-52
2021/03/24 03:56:40;;;;;;;39.33;23.23;;;;;;;;;;5017795;28;20469;-52
2021/03/24 03:59:15;;;;;;;43.72;23.73;;;;;;;;;;5018217;28;20204;-52
2021/03/24 04:01:44;;;;;;;40.88;24.10;;;;;;;;;;5018335;28;20241;-52
2021/03/24 04:04:22;;;;;;;44.00;24.58;;;;;;;;;;5018225;28;20171;-52
2021/03/24 04:06:53;;;;;;;37.75;22.90;;;;;;;;;;5017713;28;20170;-52
2021/03/24 04:09:20;;;;;;;43.20;23.73;;;;;;;;;;5017933;28;20185;-52
2021/03/24 04:11:48;;;;;;;42.75;23.85;;;;;;;;;;5016741;28;20196;-52
2021/03/24 04:14:16;;;;;;;37.95;23.38;;;;;;;;;;5018037;28;20179;-52
2021/03/24 04:16:43;;;;;;;41.72;23.65;;;;;;;;;;5018373;28;20231;-52
2021/03/24 04:19:11;;;;;;;45.00;23.92;;;;;;;;;;5017532;28;20178;-52
2021/03/24 04:21:39;;;;;;;40.03;23.65;;;;;;;;;;5017952;28;20188;-52
2021/03/24 04:24:08;;;;;;;43.92;24.05;;;;;;;;;;5017898;28;20171;-52
2021/03/24 04:26:35;;;;;;;42.90;23.85;;;;;;;;;;5018083;28;20758;-52
2021/03/24 04:29:05;;;;;;;41.75;22.20;;;;;;;;;;5017757;28;20232;-52
2021/03/24 04:31:31;;;;;;;39.47;22.40;;;;;;;;;;5017944;28;20191;-52
2021/03/24 04:33:57;;;;;;;40.35;22.83;;;;;;;;;;5000006;28;20195;-52
2021/03/24 04:36:23;;;;;;;41.23;24.20;;;;;;;;;;5018049;28;20614;-52
2021/03/24 04:38:50;;;;;;;42.70;23.02;;;;;;;;;;5019680;28;20770;-52
2021/03/24 04:41:22;;;;;;;38.60;22.58;;;;;;;;;;5020420;28;20269;-54
2021/03/24 04:43:52;;;;;;;41.85;23.40;;;;;;;;;;5021200;28;20175;-53
2021/03/24 04:46:20;;;;;;;43.05;24.63;;;;;;;;;;5021820;28;20175;-53
2021/03/24 04:48:48;;;;;;;40.13;22.95;;;;;;;;;;5020803;28;20170;-52
2021/03/24 04:51:24;;;;;;;43.15;25.88;;;;;;;;;;5021151;28;20194;-54
2021/03/24 04:53:53;;;;;;;40.47;24.17;;;;;;;;;;5021360;28;20179;-54
2021/03/24 04:56:20;;;;;;;44.35;24.02;;;;;;;;;;5020246;28;20254;-52
2021/03/24 04:58:54;;;;;;;43.67;24.73;;;;;;;;;;5021318;28;20175;-52
2021/03/24 05:01:23;;;;;;;42.47;22.75;;;;;;;;;;5021204;28;20270;-52
2021/03/24 05:03:52;;;;;;;47.17;23.73;;;;;;;;;;5022153;28;20203;-51
2021/03/24 05:06:25;;;;;;;42.13;23.63;;;;;;;;;;5020748;28;20237;-51
2021/03/24 05:08:51;;;;;;;47.67;25.00;;;;;;;;;;5021063;28;20176;-52
2021/03/24 05:11:27;;;;;;;45.35;23.40;;;;;;;;;;5019746;28;20204;-52
2021/03/24 05:13:57;;;;;;;45.85;24.95;;;;;;;;;;5019180;28;20192;-53
2021/03/24 05:16:30;;;;;;;50.00;25.65;;;;;;;;;;5020524;28;20683;-54
2021/03/24 05:18:57;;;;;;;45.95;23.73;;;;;;;;;;5019651;28;20258;-52
2021/03/24 05:21:41;;;;;;;42.63;24.58;;;;;;;;;;5020357;28;20609;-52
2021/03/24 05:24:07;;;;;;;43.78;23.55;;;;;;;;;;5020320;28;20213;-52
2021/03/24 05:26:33;;;;;;;42.08;22.60;;;;;;;;;;5020479;28;20171;-53
2021/03/24 05:29:02;;;;;;;42.07;24.67;;;;;;;;;;5020712;28;20225;-53
2021/03/24 05:31:33;;;;;;;40.45;22.70;;;;;;;;;;5019898;28;20465;-52
2021/03/24 05:34:01;;;;;;;47.83;23.80;;;;;;;;;;5020180;28;20326;-52
2021/03/24 05:36:33;;;;;;;42.03;22.95;;;;;;;;;;5020732;28;20563;-52
2021/03/24 05:39:09;;;;;;;47.45;25.40;;;;;;;;;;5019694;28;20179;-53
2021/03/24 05:41:44;;;;;;;45.20;23.10;;;;;;;;;;5017687;28;20219;-53
2021/03/24 05:44:27;;;;;;;40.85;23.83;;;;;;;;;;5019661;28;20652;-51
2021/03/24 05:47:04;;;;;;;48.63;25.88;;;;;;;;;;5019733;28;20196;-52
2021/03/24 05:49:30;;;;;;;43.40;23.42;;;;;;;;;;5019229;28;20176;-52
2021/03/24 05:51:56;;;;;;;42.87;23.27;;;;;;;;;;5019449;28;20193;-53
2021/03/24 05:54:30;;;;;;;40.07;23.50;;;;;;;;;;5020292;28;20894;-52
2021/03/24 05:57:03;;;;;;;45.17;25.25;;;;;;;;;;5019871;28;20450;-52
2021/03/24 05:59:37;;;;;;;47.08;23.30;;;;;;;;;;5019694;28;20171;-52
2021/03/24 06:02:05;;;;;;;41.63;23.98;;;;;;;;;;5017862;28;20629;-52
2021/03/24 06:04:36;;;;;;;47.08;22.48;;;;;;;;;;5019179;28;20168;-52
2021/03/24 06:07:05;;;;;;;43.58;23.60;;;;;;;;;;5019241;28;20643;-52
2021/03/24 06:09:50;;;;;;;43.53;23.92;;;;;;;;;;5018688;28;20179;-53
2021/03/24 06:12:34;;;;;;;46.00;24.20;;;;;;;;;;5017730;28;20487;-53
2021/03/24 06:15:06;;;;;;;35.05;20.10;;;;;;;;;;5018663;28;20254;-52
2021/03/24 06:17:40;;;;;;;44.05;23.55;;;;;;;;;;5017436;28;20172;-52
2021/03/24 06:20:35;;;;;;;39.97;23.63;;;;;;;;;;5019410;28;20794;-53
2021/03/24 06:23:16;;;;;;;41.08;24.73;;;;;;;;;;4999617;28;20736;-53
2021/03/24 06:25:45;;;;;;;39.63;22.15;;;;;;;;;;5017951;28;20176;-53
2021/03/24 06:28:20;;;;;;;48.33;23.60;;;;;;;;;;5016260;28;20195;-52
2021/03/24 06:30:46;;;;;;;38.58;22.75;;;;;;;;;;5018961;28;20203;-52
2021/03/24 06:33:12;;;;;;;41.53;22.27;;;;;;;;;;5018901;28;20172;-53
2021/03/24 06:35:57;;;;;;;42.73;22.83;;;;;;;;;;5019622;28;20450;-52
2021/03/24 06:38:26;;;;;;;42.47;22.20;;;;;;;;;;5011938;28;20961;-53
2021/03/24 06:41:12;;;;;;;48.58;24.27;;;;;;;;;;5010967;28;20229;-53
2021/03/24 06:43:58;;;;;;;42.90;23.58;;;;;;;;;;5010668;28;20180;-53
2021/03/24 06:46:24;;;;;;;48.00;23.90;;;;;;;;;;5007940;28;20195;-53
2021/03/24 06:48:53;;;;;;;40.23;24.37;;;;;;;;;;5011738;28;20405;-53
2021/03/24 06:51:37;;;;;;;36.17;20.93;;;;;;;;;;5011856;28;20503;-53
2021/03/24 06:54:10;;;;;;;37.47;21.80;;;;;;;;;;5011992;28;20407;-53
2021/03/24 06:56:51;;;;;;;42.30;22.33;;;;;;;;;;5011753;28;20449;-53
2021/03/24 06:59:31;;;;;;;37.47;21.30;;;;;;;;;;5011767;28;20504;-53
2021/03/24 07:02:03;;;;;;;38.60;22.53;;;;;;;;;;5010137;28;20561;-53
2021/03/24 07:04:32;;;;;;;35.40;21.00;;;;;;;;;;5011096;28;20402;-53
2021/03/24 07:06:58;;;;;;;38.43;22.50;;;;;;;;;;5011038;28;21150;-53
2021/03/24 07:09:43;;;;;;;36.83;21.50;;;;;;;;;;5010831;28;20555;-53
2021/03/24 07:12:15;;;;;;;33.27;21.27;;;;;;;;;;5009892;28;20455;-55
2021/03/24 07:14:50;;;;;;;35.90;21.80;;;;;;;;;;5010718;28;20405;-53
2021/03/24 07:17:24;;;;;;;33.30;19.97;;;;;;;;;;5010804;28;20409;-53
2021/03/24 07:19:55;;;;;;;34.43;20.67;;;;;;;;;;5010651;28;20544;-53
2021/03/24 07:22:31;;;;;;;37.70;21.40;;;;;;;;;;5010725;28;20418;-53
2021/03/24 07:25:03;;;;;;;36.80;21.10;;;;;;;;;;5010758;28;20407;-53
2021/03/24 07:27:35;;;;;;;33.60;20.10;;;;;;;;;;5010632;28;20430;-53
2021/03/24 07:30:20;;;;;;;31.07;20.30;;;;;;;;;;5011295;28;20573;-53
2021/03/24 07:33:08;;;;;;;33.93;20.40;;;;;;;;;;5011125;28;20449;-53
2021/03/24 07:35:52;;;;;;;31.57;20.17;;;;;;;;;;5011169;28;20480;-53
2021/03/24 07:38:18;;;;;;;39.30;22.23;;;;;;;;;;5010805;28;20461;-53
2021/03/24 07:41:03;;;;;;;33.37;21.10;;;;;;;;;;5010002;28;20454;-54
2021/03/24 07:43:32;;;;;;;34.33;20.53;;;;;;;;;;5011100;28;20438;-53
2021/03/24 07:46:07;;;;;;;34.87;20.93;;;;;;;;;;5011102;28;20395;-54
2021/03/24 07:48:36;;;;;;;29.93;20.30;;;;;;;;;;5010727;28;20402;-53
2021/03/24 07:51:11;;;;;;;33.07;21.00;;;;;;;;;;5010901;28;20419;-53
2021/03/24 07:54:03;;;;;;;32.87;20.93;;;;;;;;;;5010962;28;20486;-54
2021/03/24 07:56:35;;;;;;;35.60;21.77;;;;;;;;;;5002607;28;20441;-54
2021/03/24 07:59:20;;;;;;;29.13;19.37;;;;;;;;;;5010660;28;20770;-53
2021/03/24 08:01:55;;;;;;;30.70;20.50;;;;;;;;;;5010901;28;20484;-54
2021/03/24 08:04:37;;;;;;;34.17;20.87;;;;;;;;;;5011027;28;20795;-54
2021/03/24 08:07:10;;;;;;;33.50;20.70;;;;;;;;;;5010950;28;20376;-54
2021/03/24 08:09:46;;;;;;;29.20;21.73;;;;;;;;;;5009533;28;20807;-54
2021/03/24 08:12:20;;;;;;;30.70;20.90;;;;;;;;;;5010061;28;20402;-54
2021/03/24 08:14:58;;;;;;;31.70;21.27;;;;;;;;;;5014217;28;20405;-53
2021/03/24 08:17:39;;;;;;;30.67;20.53;;;;;;;;;;5014577;28;20401;-53
2021/03/24 08:20:24;;;;;;;33.37;22.40;;;;;;;;;;5014516;28;20384;-53
2021/03/24 08:23:02;;;;;;;36.73;22.60;;;;;;;;;;5014627;28;20385;-54
2021/03/24 08:25:37;;;;;;;28.97;21.23;;;;;;;;;;5014666;28;20399;-53
2021/03/24 08:28:22;;;;;;;29.77;21.17;;;;;;;;;;5014382;28;20733;-54
2021/03/24 08:31:06;;;;;;;38.27;22.50;;;;;;;;;;5014556;28;20455;-54
2021/03/24 08:33:32;;;;;;;32.67;22.50;;;;;;;;;;5014548;28;20399;-55
2021/03/24 08:36:07;;;;;;;30.10;21.43;;;;;;;;;;5014313;28;21177;-54
2021/03/24 08:39:01;;;;;;;33.23;22.37;;;;;;;;;;5014205;28;20448;-54
2021/03/24 08:41:51;;;;;;;32.20;22.40;;;;;;;;;;5012710;28;20432;-54
2021/03/24 08:44:24;;;;;;;30.13;21.13;;;;;;;;;;5014459;28;20487;-54
2021/03/24 08:47:10;;;;;;;29.90;21.97;;;;;;;;;;5014350;28;20411;-54
2021/03/24 08:49:36;;;;;;;33.03;22.87;;;;;;;;;;5014333;28;20418;-55
2021/03/24 08:52:21;;;;;;;33.00;22.83;;;;;;;;;;5008104;28;20473;-54
2021/03/24 08:55:06;;;;;;;38.77;25.87;;;;;;;;;;4994427;28;20418;-54
2021/03/24 08:57:32;;;;;;;36.80;23.00;;;;;;;;;;4994132;28;20414;-54
2021/03/24 09:00:16;;;;;;;37.00;23.63;;;;;;;;;;4994385;28;20880;-54
2021/03/24 09:03:01;;;;;;;41.73;24.60;;;;;;;;;;4994348;28;20486;-54
2021/03/24 09:05:29;;;;;;;38.97;24.67;;;;;;;;;;4994348;28;20399;-54
2021/03/24 09:07:55;;;;;;;43.37;31.47;;;;;;;;;;4993937;28;20491;-55
2021/03/24 09:10:38;;;;;;;39.63;23.60;;;;;;;;;;4992840;28;20495;-56
2021/03/24 09:13:04;;;;;;;33.60;25.07;;;;;;;;;;5012633;28;20512;-54
2021/03/24 09:15:35;;;;;;;40.50;27.23;;;;;;;;;;5013574;28;20454;-55
2021/03/24 09:18:04;;;;;;;42.70;29.13;;;;;;;;;;5013388;28;20414;-54
2021/03/24 09:20:29;;;;;;;39.50;26.80;;;;;;;;;;5013209;28;20403;-54
2021/03/24 09:23:14;;;;;;;35.87;26.33;;;;;;;;;;5013399;28;20388;-53
2021/03/24 09:25:54;;;;;;;36.83;25.53;;;;;;;;;;5012331;28;20386;-54
2021/03/24 09:28:20;;;;;;;40.30;26.40;;;;;;;;;;5012878;28;20406;-54
2021/03/24 09:31:06;;;;;;;41.00;25.97;;;;;;;;;;5013297;28;20801;-54
2021/03/24 09:33:32;;;;;;;43.20;27.70;;;;;;;;;;4999322;28;20469;-56
2021/03/24 09:36:17;;;;;;;44.07;30.40;;;;;;;;;;5008159;28;20474;-54
2021/03/24 09:38:44;;;;;;;43.87;28.67;;;;;;;;;;5011815;28;20954;-54
2021/03/24 09:41:22;;;;;;;48.53;30.73;;;;;;;;;;5011880;28;20484;-54
2021/03/24 09:43:52;;;;;;;44.50;28.50;;;;;;;;;;5012852;28;20406;-54
2021/03/24 09:46:30;;;;;;;44.97;32.10;;;;;;;;;;5012802;28;20396;-54
2021/03/24 09:48:58;;;;;;;42.70;28.20;;;;;;;;;;5012795;28;20445;-54
2021/03/24 09:51:26;;;;;;;43.03;28.93;;;;;;;;;;5011871;28;20450;-54
2021/03/24 09:53:52;;;;;;;48.90;29.57;;;;;;;;;;5012662;28;20419;-54
2021/03/24 09:56:24;;;;;;;42.93;28.33;;;;;;;;;;5012653;28;20814;-54
2021/03/24 09:59:02;;;;;;;47.47;31.30;;;;;;;;;;5012449;28;20406;-54
2021/03/24 10:01:57;;;;;;;46.97;30.50;;;;;;;;;;5011599;28;20435;-54
2021/03/24 10:04:36;;;;;;;47.90;30.20;;;;;;;;;;4994470;28;20419;-54
2021/03/24 10:07:05;;;;;;;45.53;29.97;;;;;;;;;;4999975;28;20432;-55
2021/03/24 10:09:42;;;;;;;45.93;27.97;;;;;;;;;;5000857;28;20414;-54
2021/03/24 10:12:14;;;;;;;44.40;29.97;;;;;;;;;;5005875;28;20463;-54
2021/03/24 10:15:00;;;;;;;41.70;28.63;;;;;;;;;;4995939;28;20770;-54
2021/03/24 10:17:28;;;;;;;45.40;29.60;;;;;;;;;;4980379;28;20445;-54
2021/03/24 10:19:59;;;;;;;50.63;29.53;;;;;;;;;;5004224;28;20454;-55
2021/03/24 10:22:37;;;;;;;49.20;30.60;;;;;;;;;;5014279;28;20427;-55
2021/03/24 10:25:06;;;;;;;42.90;29.47;;;;;;;;;;5016910;28;20415;-54
2021/03/24 10:27:34;;;;;;;44.80;28.63;;;;;;;;;;5007203;28;20911;-54
2021/03/24 10:29:59;;;;;;;53.33;32.93;;;;;;;;;;5007939;28;20407;-54
2021/03/24 10:32:32;;;;;;;46.47;27.53;;;;;;;;;;5007078;28;20423;-54
2021/03/24 10:35:06;;;;;;;44.07;28.30;;;;;;;;;;5006461;28;20399;-56
2021/03/24 10:37:55;;;;;;;51.40;30.27;;;;;;;;;;5004090;28;20479;-56
2021/03/24 10:40:22;;;;;;;50.67;29.20;;;;;;;;;;5010072;28;20431;-54
2021/03/24 10:42:50;;;;;;;48.13;29.73;;;;;;;;;;5012372;28;20526;-55
2021/03/24 10:45:20;;;;;;;49.13;31.87;;;;;;;;;;5009138;28;20415;-55
2021/03/24 10:47:59;;;;;;;40.30;27.30;;;;;;;;;;5007894;28;20403;-54
2021/03/24 10:50:30;;;;;;;48.37;29.80;;;;;;;;;;5015097;28;20897;-54
2021/03/24 10:52:58;;;;;;;49.20;29.27;;;;;;;;;;5017489;28;20831;-54
2021/03/24 10:55:24;;;;;;;49.33;29.37;;;;;;;;;;5016040;28;20465;-54
2021/03/24 10:57:56;;;;;;;48.20;30.70;;;;;;;;;;5014260;28;20431;-53
2021/03/24 11:00:26;;;;;;;50.43;30.80;;;;;;;;;;5014571;28;21157;-55
2021/03/24 11:03:05;;;;;;;51.27;27.83;;;;;;;;;;5015575;28;20430;-54
2021/03/24 11:05:38;;;;;;;52.47;31.87;;;;;;;;;;5003401;28;20432;-56
2021/03/24 11:08:16;;;;;;;50.57;31.47;;;;;;;;;;4995427;28;20415;-55
2021/03/24 11:11:14;;;;;;;47.40;29.27;;;;;;;;;;4995185;28;20426;-55
2021/03/24 11:13:42;;;;;;;51.20;29.20;;;;;;;;;;4986260;28;20439;-54
2021/03/24 11:16:09;;;;;;;53.10;30.93;;;;;;;;;;5015452;28;20566;-56
2021/03/24 11:18:41;;;;;;;54.67;32.60;;;;;;;;;;5014517;28;20810;-55
2021/03/24 11:21:10;;;;;;;52.60;32.70;;;;;;;;;;5015419;28;20446;-55
2021/03/24 11:23:38;;;;;;;52.00;30.50;;;;;;;;;;5014975;28;20502;-55
2021/03/24 11:26:30;;;;;;;42.43;26.47;;;;;;;;;;5015093;28;20398;-54
2021/03/24 11:28:58;;;;;;;53.83;30.60;;;;;;;;;;5014364;28;20426;-55
2021/03/24 11:31:27;;;;;;;45.20;27.93;;;;;;;;;;5007372;28;20587;-55
2021/03/24 11:34:05;;;;;;;48.43;26.60;;;;;;;;;;4993162;28;20821;-55
2021/03/24 11:36:38;;;;;;;61.87;29.40;;;;;;;;;;4993116;28;20474;-55
2021/03/24 11:39:13;;;;;;;44.60;27.77;;;;;;;;;;4992602;28;20868;-55
2021/03/24 11:41:40;;;;;;;44.97;26.27;;;;;;;;;;4993488;28;20438;-54
2021/03/24 11:44:12;;;;;;;44.50;27.20;;;;;;;;;;5010986;28;20942;-56
2021/03/24 11:46:41;;;;;;;41.50;26.30;;;;;;;;;;5013808;28;20403;-54
2021/03/24 11:49:07;;;;;;;37.43;23.03;;;;;;;;;;5013692;28;20410;-55
2021/03/24 11:51:33;;;;;;;41.83;26.60;;;;;;;;;;5014172;28;20916;-55
2021/03/24 11:54:02;;;;;;;42.70;26.60;;;;;;;;;;5014113;28;20994;-55
2021/03/24 11:56:37;;;;;;;41.90;25.57;;;;;;;;;;5002322;28;20680;-57
2021/03/24 11:59:13;;;;;;;40.70;24.63;;;;;;;;;;4993620;28;20412;-55
2021/03/24 12:01:42;;;;;;;39.67;25.13;;;;;;;;;;4995362;28;20431;-55
2021/03/24 12:04:34;;;;;;;43.80;27.97;;;;;;;;;;5010329;28;20450;-57
2021/03/24 12:07:03;;;;;;;42.43;25.50;;;;;;;;;;5015451;28;20418;-55
2021/03/24 12:09:30;;;;;;;45.03;24.87;;;;;;;;;;5014190;28;20396;-55
2021/03/24 12:12:05;;;;;;;33.53;22.03;;;;;;;;;;5016952;28;20450;-57
2021/03/24 12:14:32;;;;;;;36.77;24.10;;;;;;;;;;5018114;28;20406;-57
2021/03/24 12:17:01;;;;;;;43.27;24.37;;;;;;;;;;5019046;28;20469;-56
2021/03/24 12:19:27;;;;;;;37.20;24.20;;;;;;;;;;5016812;28;20434;-55
2021/03/24 12:22:16;;;;;;;39.70;24.57;;;;;;;;;;5014598;28;20950;-55
2021/03/24 12:24:42;;;;;;;39.77;23.40;;;;;;;;;;5008258;28;20957;-55
2021/03/24 12:27:11;;;;;;;35.43;23.93;;;;;;;;;;5015224;28;20407;-54
2021/03/24 12:29:38;;;;;;;32.57;21.97;;;;;;;;;;5015013;28;20442;-55
2021/03/24 12:32:16;;;;;;;33.37;20.57;;;;;;;;;;5015098;28;20455;-55
2021/03/24 12:34:45;;;;;;;37.40;22.63;;;;;;;;;;5013686;28;20430;-54
2021/03/24 12:37:22;;;;;;;33.80;21.70;;;;;;;;;;5014953;28;21035;-54
2021/03/24 12:39:50;;;;;;;29.10;21.73;;;;;;;;;;4993735;28;20478;-53
2021/03/24 12:42:19;;;;;;;35.97;22.33;;;;;;;;;;4990702;28;20450;-54
2021/03/24 12:44:46;;;;;;;36.13;23.20;;;;;;;;;;4990631;28;20900;-52
2021/03/24 12:47:31;;;;;;;35.30;22.20;;;;;;;;;;4990865;28;20451;-52
2021/03/24 12:50:11;;;;;;;42.13;24.30;;;;;;;;;;4990829;28;20408;-52
2021/03/24 12:52:43;;;;;;;35.83;22.13;;;;;;;;;;4990647;28;20939;-54
2021/03/24 12:55:10;;;;;;;34.40;21.97;;;;;;;;;;4990612;28;20404;-53
2021/03/24 12:57:39;;;;;;;30.10;20.37;;;;;;;;;;4990411;28;20440;-52
2021/03/24 13:00:05;;;;;;;27.97;20.33;;;;;;;;;;4992301;28;20408;-53
2021/03/24 13:02:37;;;;;;;29.57;20.50;;;;;;;;;;4993953;28;20474;-53
2021/03/24 13:05:06;;;;;;;35.63;20.53;;;;;;;;;;5007628;28;20518;-53
2021/03/24 13:07:32;;;;;;;29.17;21.17;;;;;;;;;;5013218;28;20427;-53
2021/03/24 13:10:04;;;;;;;35.63;22.30;;;;;;;;;;5013563;28;20442;-54
2021/03/24 13:12:39;;;;;;;34.50;21.27;;;;;;;;;;5012753;28;20453;-54
2021/03/24 13:15:20;;;;;;;33.33;20.70;;;;;;;;;;5013470;28;20407;-53
2021/03/24 13:17:53;;;;;;;30.50;21.20;;;;;;;;;;5013321;28;20490;-52
2021/03/24 13:20:22;;;;;;;34.80;21.13;;;;;;;;;;5013297;28;20387;-53
2021/03/24 13:22:53;;;;;;;37.53;22.00;;;;;;;;;;5013432;28;20391;-52
2021/03/24 13:25:19;;;;;;;33.40;20.70;;;;;;;;;;5013539;28;20433;-53
2021/03/24 13:28:04;;;;;;;31.43;21.33;;;;;;;;;;5012967;28;20895;-53
2021/03/24 13:30:41;;;;;;;30.00;20.33;;;;;;;;;;5013201;28;20941;-52
2021/03/24 13:33:16;;;;;;;27.97;19.70;;;;;;;;;;5013143;28;20430;-55
2021/03/24 13:35:54;;;;;;;31.30;22.07;;;;;;;;;;5012226;28;20458;-52
2021/03/24 13:38:28;;;;;;;36.27;21.60;;;;;;;;;;5012704;28;20961;-52
2021/03/24 13:40:57;;;;;;;27.80;20.60;;;;;;;;;;5012765;28;20426;-53
2021/03/24 13:43:30;;;;;;;31.67;21.10;;;;;;;;;;5013108;28;20394;-54
2021/03/24 13:46:08;;;;;;;30.50;21.90;;;;;;;;;;5013022;28;20410;-52
2021/03/24 13:48:53;;;;;;;37.77;23.37;;;;;;;;;;5012686;28;20486;-52
2021/03/24 13:51:19;;;;;;;30.43;21.93;;;;;;;;;;5011556;28;20469;-52
2021/03/24 13:53:51;;;;;;;35.43;21.87;;;;;;;;;;5012988;28;20407;-52
2021/03/24 13:56:55;;;;;;;31.20;21.47;;;;;;;;;;5012803;28;20969;-52
2021/03/24 13:59:21;;;;;;;31.80;22.10;;;;;;;;;;4990828;28;20616;-52
2021/03/24 14:01:59;;;;;;;34.70;21.73;;;;;;;;;;4990912;28;20424;-52
2021/03/24 14:04:28;;;;;;;34.27;22.13;;;;;;;;;;5001981;28;20415;-55
2021/03/24 14:07:06;;;;;;;31.70;20.93;;;;;;;;;;5011065;28;20498;-56
2021/03/24 14:09:32;;;;;;;35.00;23.07;;;;;;;;;;5012269;28;20398;-52
2021/03/24 14:12:04;;;;;;;30.40;19.33;;;;;;;;;;5011696;28;20791;-54
2021/03/24 14:14:33;;;;;;;26.17;19.00;;;;;;;;;;5012496;28;20417;-54
2021/03/24 14:17:02;;;;;;;35.90;20.47;;;;;;;;;;5012188;28;20981;-52
2021/03/24 14:19:42;;;;;;;32.40;21.00;;;;;;;;;;5010192;28;20415;-52
2021/03/24 14:22:27;;;;;;;32.30;19.53;;;;;;;;;;5012076;28;20427;-54
2021/03/24 14:25:12;;;;;;;29.87;19.00;;;;;;;;;;5010918;28;20435;-54
2021/03/24 14:27:44;;;;;;;32.20;20.03;;;;;;;;;;5011826;28;20404;-52
2021/03/24 14:30:10;;;;;;;32.40;20.30;;;;;;;;;;5012058;28;20425;-52
2021/03/24 14:32:44;;;;;;;29.70;18.83;;;;;;;;;;5012083;28;20431;-52
2021/03/24 14:35:19;;;;;;;31.37;19.33;;;;;;;;;;5010938;28;20403;-52
2021/03/24 14:37:59;;;;;;;32.83;19.90;;;;;;;;;;4992108;28;20399;-52
2021/03/24 14:40:25;;;;;;;34.33;21.07;;;;;;;;;;4992226;28;20392;-52
2021/03/24 14:42:53;;;;;;;31.07;21.37;;;;;;;;;;4992193;28;20427;-53
2021/03/24 14:45:54;;;;;;;31.73;20.07;;;;;;;;;;4992187;28;20399;-52